createdAt,value
2017-10-14T06:52:51.212Z,13.90
2017-10-14T06:55:20.478Z,14.00
2017-10-14T06:57:50.358Z,14.00
2017-10-14T07:00:19.341Z,14.00
2017-10-14T07:02:49.484Z,14.10
2017-10-14T07:05:18.648Z,14.10
2017-10-14T07:07:51.311Z,14.20
2017-10-14T07:10:20.606Z,14.20
2017-10-14T07:12:49.951Z,14.30
2017-10-14T07:15:20.783Z,14.40
2017-10-14T07:17:50.243Z,14.40
2017-10-14T07:20:19.423Z,14.40
2017-10-14T07:22:48.620Z,14.50
2017-10-14T07:25:18.034Z,14.50
2017-10-14T07:27:47.237Z,14.50
2017-10-14T07:30:16.886Z,14.50
2017-10-14T07:32:46.972Z,14.60
2017-10-14T07:36:45.933Z,14.60
2017-10-14T07:39:15.503Z,14.60
2017-10-14T07:41:45.419Z,14.80
2017-10-14T07:44:15.755Z,14.90
2017-10-14T07:46:44.842Z,14.80
2017-10-14T07:49:14.994Z,15.00
2017-10-14T07:51:45.167Z,15.00
2017-10-14T07:54:14.836Z,15.10
2017-10-14T07:56:44.379Z,15.10
2017-10-14T07:59:13.430Z,15.20
2017-10-14T08:01:43.143Z,15.20
2017-10-14T08:04:12.426Z,15.30
2017-10-14T08:06:41.825Z,15.40
2017-10-14T08:09:12.563Z,15.50
2017-10-14T08:11:41.836Z,15.50
2017-10-14T08:14:12.358Z,15.70
2017-10-14T08:16:43.002Z,15.80
2017-10-14T08:19:13.237Z,15.90
2017-10-14T08:21:42.504Z,15.80
2017-10-14T08:24:15.638Z,16.00
2017-10-14T08:26:46.322Z,16.00
2017-10-14T08:29:16.073Z,16.00
2017-10-14T08:31:45.630Z,16.10
2017-10-14T08:34:21.115Z,16.20
2017-10-14T08:37:08.995Z,16.20
2017-10-14T08:39:40.124Z,16.30
2017-10-14T08:42:09.319Z,16.40
2017-10-14T08:44:38.566Z,16.50
2017-10-14T08:47:08.054Z,16.60
2017-10-14T08:49:37.532Z,16.70
2017-10-14T08:52:07.895Z,16.70
2017-10-14T08:54:37.195Z,16.90
2017-10-14T08:57:06.589Z,16.90
2017-10-14T08:59:35.782Z,17.00
2017-10-14T09:02:04.487Z,17.00
2017-10-14T09:04:36.025Z,17.10
2017-10-14T09:07:05.842Z,17.10
2017-10-14T09:09:42.528Z,17.20
2017-10-14T09:12:17.460Z,17.30
2017-10-14T09:14:51.690Z,17.30
2017-10-14T09:17:21.338Z,17.40
2017-10-14T09:19:52.737Z,17.50
2017-10-14T09:22:23.721Z,17.60
2017-10-14T09:24:54.279Z,17.70
2017-10-14T09:27:23.814Z,17.80
2017-10-14T09:29:53.970Z,17.80
2017-10-14T09:32:23.227Z,17.80
2017-10-14T09:34:52.731Z,17.90
2017-10-14T09:37:22.053Z,18.00
2017-10-14T09:39:51.848Z,18.20
2017-10-14T09:42:22.485Z,18.30
2017-10-14T09:44:52.860Z,18.50
2017-10-14T09:47:22.236Z,18.50
2017-10-14T09:49:53.023Z,18.80
2017-10-14T09:52:23.127Z,18.80
2017-10-14T09:54:52.662Z,18.90
2017-10-14T09:57:21.928Z,19.10
2017-10-14T09:59:51.851Z,19.20
2017-10-14T10:02:22.283Z,19.40
2017-10-14T10:04:52.049Z,19.90
2017-10-14T10:07:22.134Z,20.50
2017-10-14T10:09:54.676Z,20.60
2017-10-14T10:12:33.302Z,20.60
2017-10-14T10:15:04.745Z,21.30
2017-10-14T10:17:34.929Z,22.40
2017-10-14T10:20:04.987Z,25.70
2017-10-14T10:22:34.376Z,25.60
2017-10-14T10:25:03.874Z,27.00
2017-10-14T10:27:33.733Z,27.40
2017-10-14T10:30:03.033Z,27.10
2017-10-14T10:32:32.953Z,26.90
2017-10-14T10:35:03.090Z,28.40
2017-10-14T10:37:33.386Z,28.20
2017-10-14T10:40:02.944Z,28.20
2017-10-14T10:42:33.383Z,28.50
2017-10-14T10:45:02.658Z,29.20
2017-10-14T10:47:32.002Z,29.90
2017-10-14T10:50:01.898Z,29.40
2017-10-14T10:52:31.322Z,29.50
2017-10-14T10:55:00.762Z,29.40
2017-10-14T10:57:31.642Z,29.50
2017-10-14T11:00:00.991Z,29.50
2017-10-14T11:02:31.686Z,31.30
2017-10-14T11:05:01.935Z,30.20
2017-10-14T11:07:31.176Z,30.20
2017-10-14T11:10:01.444Z,30.60
2017-10-14T11:12:31.363Z,30.60
2017-10-14T11:15:01.334Z,30.80
2017-10-14T11:17:31.613Z,30.10
2017-10-14T11:20:00.991Z,30.10
2017-10-14T11:22:30.431Z,31.40
2017-10-14T11:25:00.726Z,31.70
2017-10-14T11:27:31.561Z,31.00
2017-10-14T11:30:00.671Z,31.40
2017-10-14T11:32:30.552Z,32.10
2017-10-14T11:34:59.935Z,31.80
2017-10-14T11:37:30.923Z,31.60
2017-10-14T11:40:00.690Z,31.60
2017-10-14T11:42:31.161Z,31.40
2017-10-14T11:45:01.361Z,31.60
2017-10-14T11:47:30.782Z,31.20
2017-10-14T11:50:15.831Z,31.20
2017-10-14T11:52:45.445Z,31.40
2017-10-14T11:55:15.164Z,32.30
2017-10-14T11:57:45.241Z,32.00
2017-10-14T12:00:15.161Z,31.90
2017-10-14T12:02:59.897Z,32.00
2017-10-14T12:05:45.829Z,32.20
2017-10-14T12:08:16.685Z,32.30
2017-10-14T12:10:46.190Z,32.10
2017-10-14T12:13:15.788Z,31.70
2017-10-14T12:15:50.643Z,32.30
2017-10-14T12:18:45.662Z,31.60
2017-10-14T12:21:17.323Z,32.60
2017-10-14T12:23:47.320Z,31.90
2017-10-14T12:26:16.871Z,32.50
2017-10-14T12:29:16.071Z,32.20
2017-10-14T12:31:46.821Z,32.50
2017-10-14T12:34:19.120Z,32.20
2017-10-14T12:36:48.892Z,32.20
2017-10-14T12:39:18.619Z,32.20
2017-10-14T12:41:48.435Z,32.20
2017-10-14T12:44:17.966Z,32.50
2017-10-14T12:46:47.306Z,32.30
2017-10-14T12:49:17.304Z,33.10
2017-10-14T12:51:47.294Z,32.30
2017-10-14T12:54:16.898Z,31.80
2017-10-14T12:56:54.151Z,33.50
2017-10-14T12:59:31.663Z,33.50
2017-10-14T13:02:05.086Z,33.70
2017-10-14T13:04:47.165Z,32.20
2017-10-14T13:07:24.783Z,32.20
2017-10-14T13:09:54.752Z,32.50
2017-10-14T13:12:25.162Z,33.70
2017-10-14T13:14:54.506Z,33.70
2017-10-14T13:17:24.144Z,34.20
2017-10-14T13:19:56.444Z,34.10
2017-10-14T13:22:25.764Z,34.10
2017-10-14T13:24:55.965Z,34.80
2017-10-14T13:27:27.954Z,34.80
2017-10-14T13:29:58.216Z,33.70
2017-10-14T13:32:28.322Z,35.40
2017-10-14T13:34:58.293Z,35.30
2017-10-14T13:37:28.401Z,36.10
2017-10-14T13:39:58.294Z,34.10
2017-10-14T13:42:27.899Z,34.50
2017-10-14T13:44:58.159Z,33.50
2017-10-14T13:47:27.959Z,33.80
2017-10-14T13:50:00.243Z,33.90
2017-10-14T13:52:31.624Z,31.80
2017-10-14T13:55:01.652Z,31.70
2017-10-14T13:57:31.066Z,31.60
2017-10-14T14:00:01.871Z,31.50
2017-10-14T14:02:31.241Z,31.40
2017-10-14T14:05:01.559Z,31.90
2017-10-14T14:07:37.289Z,32.50
2017-10-14T14:10:12.675Z,30.70
2017-10-14T14:12:42.307Z,30.50
2017-10-14T14:15:12.586Z,29.70
2017-10-14T14:17:42.614Z,28.90
2017-10-14T14:20:12.322Z,27.20
2017-10-14T14:22:42.795Z,25.50
2017-10-14T14:25:17.999Z,25.50
2017-10-14T14:27:52.548Z,25.10
2017-10-14T14:30:22.681Z,24.20
2017-10-14T14:32:52.346Z,24.20
2017-10-14T14:35:22.510Z,24.10
2017-10-14T14:37:52.068Z,24.00
2017-10-14T14:40:24.502Z,24.10
2017-10-14T14:42:55.268Z,23.80
2017-10-14T14:45:28.755Z,23.80
2017-10-14T14:48:00.224Z,23.40
2017-10-14T14:50:31.950Z,23.30
2017-10-14T14:53:03.432Z,23.20
2017-10-14T14:55:33.567Z,23.00
2017-10-14T14:58:03.845Z,23.00
2017-10-14T15:00:35.630Z,23.00
2017-10-14T15:03:04.973Z,23.00
2017-10-14T15:05:34.344Z,23.10
2017-10-14T15:08:04.108Z,23.20
2017-10-14T15:10:34.814Z,23.10
2017-10-14T15:13:05.048Z,22.90
2017-10-14T15:15:34.685Z,22.90
2017-10-14T15:18:04.092Z,22.90
2017-10-14T15:20:33.560Z,22.90
2017-10-14T15:23:03.460Z,23.00
2017-10-14T15:25:33.603Z,22.90
2017-10-14T15:28:03.667Z,22.90
2017-10-14T15:30:33.087Z,22.70
2017-10-14T15:33:09.891Z,22.70
2017-10-14T15:35:45.714Z,22.70
2017-10-14T15:38:16.379Z,22.70
2017-10-14T15:40:46.404Z,22.60
2017-10-14T15:43:26.863Z,22.60
2017-10-14T15:46:07.940Z,22.40
2017-10-14T15:48:39.604Z,22.30
2017-10-14T15:51:12.952Z,22.30
2017-10-14T15:53:44.445Z,22.20
2017-10-14T15:56:14.124Z,22.20
2017-10-14T15:58:44.483Z,22.10
2017-10-14T16:01:22.127Z,22.10
2017-10-14T16:03:51.728Z,22.10
2017-10-14T16:06:21.322Z,22.00
2017-10-14T16:08:51.809Z,22.00
2017-10-14T16:11:22.235Z,21.90
2017-10-14T16:13:53.121Z,21.90
2017-10-14T16:16:23.589Z,21.80
2017-10-14T16:18:53.401Z,21.80
2017-10-14T16:21:29.964Z,21.70
2017-10-14T16:24:13.165Z,21.70
2017-10-14T16:26:47.330Z,21.70
2017-10-14T16:29:17.328Z,21.60
2017-10-14T16:31:50.452Z,21.50
2017-10-14T16:34:23.413Z,21.40
2017-10-14T16:37:08.434Z,21.40
2017-10-14T16:39:57.733Z,21.40
2017-10-14T16:42:34.548Z,21.30
2017-10-14T16:45:08.847Z,21.20
2017-10-14T16:47:52.620Z,21.20
2017-10-14T16:50:31.677Z,21.10
2017-10-14T16:53:06.649Z,21.10
2017-10-14T16:55:45.137Z,21.00
2017-10-14T16:58:32.768Z,21.00
2017-10-14T17:01:26.061Z,20.90
2017-10-14T17:04:13.891Z,20.90
2017-10-14T17:06:48.564Z,20.90
2017-10-14T17:09:24.919Z,20.80
2017-10-14T17:12:08.063Z,20.80
2017-10-14T17:14:42.435Z,20.80
2017-10-14T17:17:18.699Z,20.70
2017-10-14T17:19:50.052Z,20.70
2017-10-14T17:22:22.562Z,20.70
2017-10-14T17:24:54.201Z,20.70
2017-10-14T17:27:28.802Z,20.60
2017-10-14T17:29:59.128Z,20.60
2017-10-14T17:32:31.352Z,20.50
2017-10-14T17:35:02.460Z,20.50
2017-10-14T17:37:36.897Z,20.40
2017-10-14T17:40:10.584Z,20.40
2017-10-14T17:42:55.170Z,20.30
2017-10-14T17:45:35.222Z,20.30
2017-10-14T17:48:07.723Z,20.30
2017-10-14T17:50:38.738Z,20.30
2017-10-14T17:53:23.072Z,20.30
2017-10-14T17:55:59.147Z,20.30
2017-10-14T17:58:33.925Z,20.30
2017-10-14T18:01:08.591Z,20.30
2017-10-14T18:03:41.002Z,20.10
2017-10-14T18:06:16.331Z,20.00
2017-10-14T18:08:48.837Z,20.00
2017-10-14T18:11:18.347Z,20.10
2017-10-14T18:13:47.694Z,20.10
2017-10-14T18:16:17.234Z,20.10
2017-10-14T18:18:53.932Z,20.10
2017-10-14T18:21:24.486Z,20.10
2017-10-14T18:23:54.561Z,20.00
2017-10-14T18:26:24.503Z,20.00
2017-10-14T18:28:54.946Z,19.80
2017-10-14T18:31:31.709Z,19.80
2017-10-14T18:34:02.482Z,19.60
2017-10-14T18:36:33.893Z,19.50
2017-10-14T18:39:13.097Z,19.30
2017-10-14T18:41:43.685Z,19.20
2017-10-14T18:44:13.424Z,19.20
2017-10-14T18:46:43.088Z,19.20
2017-10-14T18:49:13.385Z,19.10
2017-10-14T18:51:44.389Z,19.10
2017-10-14T18:54:14.247Z,19.10
2017-10-14T18:56:53.222Z,19.00
2017-10-14T18:59:33.965Z,19.00
2017-10-14T19:02:10.426Z,18.90
2017-10-14T19:04:41.568Z,18.90
2017-10-14T19:07:28.627Z,18.90
2017-10-14T19:09:59.185Z,18.80
2017-10-14T19:12:28.705Z,18.80
2017-10-14T19:14:59.241Z,18.70
2017-10-14T19:17:28.842Z,18.70
2017-10-14T19:20:06.435Z,18.50
2017-10-14T19:22:45.953Z,18.50
2017-10-14T19:25:57.813Z,18.50
2017-10-14T19:28:50.357Z,18.50
2017-10-14T19:31:37.903Z,18.40
2017-10-14T19:34:10.496Z,18.40
2017-10-14T19:36:47.567Z,18.30
2017-10-14T19:39:26.678Z,18.30
2017-10-14T19:42:12.395Z,18.30
2017-10-14T19:44:54.552Z,18.30
2017-10-14T19:47:37.103Z,18.30
2017-10-14T19:50:11.767Z,18.30
2017-10-14T19:53:06.170Z,18.20
2017-10-14T19:55:49.377Z,18.20
2017-10-14T19:58:36.878Z,18.10
2017-10-14T20:04:46.596Z,17.90
2017-10-14T20:11:31.282Z,17.80
2017-10-14T20:15:01.464Z,17.70
2017-10-14T20:24:35.135Z,17.70
2017-10-14T20:36:30.900Z,17.50
2017-10-14T20:43:01.337Z,17.40
2017-10-14T20:45:41.108Z,17.40
2017-10-14T20:48:13.343Z,17.40
2017-10-14T20:53:57.731Z,17.30
2017-10-14T20:57:10.641Z,17.20
2017-10-14T21:00:15.496Z,17.30
2017-10-14T21:07:09.358Z,17.20
2017-10-14T21:16:39.876Z,17.10
2017-10-14T21:26:05.205Z,16.90
2017-10-14T21:36:21.073Z,16.80
2017-10-14T21:39:04.157Z,16.70
2017-10-14T21:42:01.005Z,16.70
2017-10-14T21:44:49.607Z,16.60
2017-10-14T21:50:23.814Z,16.60
2017-10-14T21:53:11.216Z,16.60
2017-10-14T21:56:17.373Z,16.60
2017-10-14T21:58:55.736Z,16.50
2017-10-14T22:01:36.570Z,16.60
2017-10-14T22:04:11.827Z,16.60
2017-10-14T22:06:44.647Z,16.50
2017-10-14T22:09:27.882Z,16.50
2017-10-14T22:11:59.163Z,16.40
2017-10-14T22:14:34.836Z,16.40
2017-10-14T22:17:11.160Z,16.50
2017-10-14T22:19:47.076Z,16.50
2017-10-14T22:23:04.407Z,16.50
2017-10-14T22:25:49.685Z,16.40
2017-10-14T22:32:20.882Z,16.30
2017-10-14T22:34:56.221Z,16.20
2017-10-14T22:40:05.991Z,16.10
2017-10-14T22:42:37.851Z,16.10
2017-10-14T22:45:09.306Z,16.10
2017-10-14T22:47:47.393Z,16.10
2017-10-14T22:50:28.359Z,16.10
2017-10-14T22:53:07.720Z,16.00
2017-10-14T22:55:40.182Z,16.00
2017-10-14T22:58:10.879Z,15.90
2017-10-14T23:00:41.557Z,15.90
2017-10-14T23:03:11.019Z,15.90
2017-10-14T23:05:41.708Z,15.90
2017-10-14T23:08:12.732Z,15.80
2017-10-14T23:10:43.563Z,15.80
2017-10-14T23:13:13.595Z,15.80
2017-10-14T23:15:46.226Z,15.70
2017-10-14T23:18:18.044Z,15.70
2017-10-14T23:20:48.166Z,15.70
2017-10-14T23:23:19.293Z,15.60
2017-10-14T23:25:52.974Z,15.60
2017-10-14T23:28:30.691Z,15.50
2017-10-14T23:31:12.787Z,15.50
2017-10-14T23:33:49.710Z,15.40
2017-10-14T23:36:24.365Z,15.40
2017-10-14T23:39:03.289Z,15.50
2017-10-14T23:41:38.978Z,15.40
2017-10-14T23:44:09.094Z,15.40
2017-10-14T23:46:38.820Z,15.40
2017-10-14T23:49:08.038Z,15.40
2017-10-14T23:51:37.807Z,15.40
2017-10-14T23:54:07.221Z,15.40
2017-10-14T23:56:38.679Z,15.30
2017-10-14T23:59:08.126Z,15.30
